Maersk Shanghai — D5LD2 — position and weather

sailwx.info

Track history (hours):
 
Tides and Currents Weather Stations Pressure Air Temp Water Temp Dewpoint Dewpoint Depression Visibility Wind Speed Wind Dir Waves Ship Positions

Maersk Shanghai

Last reported at 2017-Oct-18 16:01 UTC. Time now 2017-Oct-18 20:21 UTC.
Position N 01°15' E 104°03'.

Length 324 m; draft 10.6 m.

Type: Cargo ship. MMSI: 636017473.

Date/timePositionNaut miles runAvg speedWind from/ knotsBaromVisibWave heightAir tempDewpointWater temp
2017-Oct-18 16:01N 01°15' E 104°03'0 2.2
2017-Oct-18 15:59N 01°15' E 104°03'2 3.8
2017-Oct-18 15:30N 01°14' E 104°01'2 3.6
2017-Oct-18 15:00N 01°14' E 103°59'4 3.8
2017-Oct-18 14:00N 01°13' E 103°56'2 3.5
2017-Oct-18 13:30N 01°13' E 103°54'2 3.2
2017-Oct-18 13:00N 01°12' E 103°53'2 3.1
2017-Oct-18 12:30N 01°12' E 103°51'1 2.8
2017-Oct-18 11:59N 01°12' E 103°50'19 2.6
2017-Oct-18 04:41N 01°15' E 104°08'313.2
2017-Oct-18 04:26N 01°15' E 104°05'613.0
2017-Oct-18 03:58N 01°14' E 103°59'612.2
2017-Oct-18 03:30N 01°13' E 103°54'5 9.5
2017-Oct-18 03:00N 01°12' E 103°49'4 7.6
2017-Oct-18 02:30N 01°15' E 103°47'2 3.2
2017-Oct-18 01:57N 01°16' E 103°46'0 0.1
2017-Oct-18 01:30N 01°16' E 103°46'0 0.0
2017-Oct-18 01:00N 01°16' E 103°46'0 0.0
2017-Oct-18 00:27N 01°16' E 103°46'0 0.1
2017-Oct-17 23:39N 01°16' E 103°46'0 0.3
2017-Oct-17 23:27N 01°16' E 103°46'0 0.0
2017-Oct-17 22:54N 01°16' E 103°46'0 0.0
2017-Oct-17 22:27N 01°16' E 103°46'0 0.1
2017-Oct-17 21:51N 01°16' E 103°46'0 0.0
2017-Oct-17 21:27N 01°16' E 103°46'0 0.0
2017-Oct-17 20:57N 01°16' E 103°46'0 0.0
2017-Oct-17 19:45N 01°16' E 103°46'0 0.2
2017-Oct-17 19:27N 01°16' E 103°46'0 0.0
2017-Oct-17 18:57N 01°16' E 103°46'0 0.0
2017-Oct-17 18:24N 01°16' E 103°46'0 0.0
2017-Oct-17 18:00N 01°16' E 103°46'0 0.1
2017-Oct-17 17:27N 01°16' E 103°46'0 0.0
2017-Oct-17 16:54N 01°16' E 103°46'0 0.1
2017-Oct-17 16:06N 01°16' E 103°46'0 0.0
2017-Oct-17 15:45N 01°16' E 103°46'0 0.0
2017-Oct-17 14:54N 01°16' E 103°46'2 4.5
2017-Oct-17 14:27N 01°15' E 103°47'1 1.5
2017-Oct-17 13:53N 01°14' E 103°47'1 1.6
2017-Oct-17 13:27N 01°13' E 103°48'4 8.1
2017-Oct-17 13:00N 01°16' E 103°46'0 0.0
2017-Oct-17 12:27N 01°16' E 103°46'0 0.0
2017-Oct-17 11:57N 01°16' E 103°46'0 0.0
2017-Oct-17 11:30N 01°16' E 103°46'0 0.0
2017-Oct-17 10:57N 01°16' E 103°46'0 0.0
2017-Oct-17 10:30N 01°16' E 103°46'0 0.0
2017-Oct-17 10:01N 01°16' E 103°46'0 0.0
2017-Oct-17 09:30N 01°16' E 103°46'0 0.0
2017-Oct-17 08:54N 01°16' E 103°46'0 0.0
2017-Oct-17 08:28N 01°16' E 103°46'0 0.0
2017-Oct-17 07:58N 01°16' E 103°46'1 2.8
2017-Oct-17 07:26N 01°15' E 103°45'0 0.3
2017-Oct-17 07:00N 01°15' E 103°45'0 0.3
2017-Oct-17 06:30N 01°15' E 103°45'0 0.9
2017-Oct-17 05:58N 01°15' E 103°45'1 1.3
2017-Oct-17 05:30N 01°15' E 103°44'2 3.5
2017-Oct-17 04:49N 01°16' E 103°46'0 0.2
2017-Oct-17 04:30N 01°16' E 103°46'3 5.0
2017-Oct-17 04:00N 01°14' E 103°47'3 6.0
2017-Oct-17 03:30N 01°12' E 103°50'3 6.0
2017-Oct-17 03:00N 01°13' E 103°52'1 2.6
2017-Oct-17 02:30N 01°14' E 103°53'0 0.4
2017-Oct-17 01:59N 01°15' E 103°53'0 0.0
2017-Oct-17 01:26N 01°15' E 103°53'0 0.0
2017-Oct-17 00:56N 01°15' E 103°53'0 0.0
2017-Oct-17 00:29N 01°15' E 103°53'0 0.0
2017-Oct-16 23:59N 01°15' E 103°53'0 0.0
2017-Oct-16 23:29N 01°15' E 103°53'0 0.0
2017-Oct-16 22:59N 01°15' E 103°53'0 0.0
2017-Oct-16 22:29N 01°15' E 103°53'3 5.3
2017-Oct-16 22:00N 01°13' E 103°51'4 8.4
2017-Oct-16 21:30N 01°14' E 103°47'3 6.4
2017-Oct-16 21:00N 01°16' E 103°46'1 2.3
2017-Oct-16 20:31N 01°15' E 103°46'1 1.3
2017-Oct-16 20:00N 01°15' E 103°45'2 4.1
2017-Oct-16 19:30N 01°14' E 103°43'5 9.3
2017-Oct-16 19:00N 01°12' E 103°39'4 7.3
2017-Oct-16 18:30N 01°12' E 103°36'4 7.1
2017-Oct-16 18:00N 01°10' E 103°33'713.6
2017-Oct-16 17:30N 01°11' E 103°26'815.9
2017-Oct-16 16:58N 01°16' E 103°19'  
Track history (hours):
 
Tides and Currents Weather Stations Pressure Air Temp Water Temp Dewpoint Dewpoint Depression Visibility Wind Speed Wind Dir Waves Ship Positions

Maersk Shanghai

Last reported at 2017-Oct-18 16:01 UTC. Time now 2017-Oct-18 20:21 UTC.
Position N 01°15' E 104°03'.

Length 324 m; draft 10.6 m.

Type: Cargo ship. MMSI: 636017473.

Date/timePositionNaut miles runAvg speedWind from/ knotsBaromVisibWave heightAir tempDewpointWater temp
2017-Oct-18 16:01N 01°15' E 104°03'0 2.2
2017-Oct-18 15:59N 01°15' E 104°03'2 3.8
2017-Oct-18 15:30N 01°14' E 104°01'2 3.6
2017-Oct-18 15:00N 01°14' E 103°59'4 3.8
2017-Oct-18 14:00N 01°13' E 103°56'2 3.5
2017-Oct-18 13:30N 01°13' E 103°54'2 3.2
2017-Oct-18 13:00N 01°12' E 103°53'2 3.1
2017-Oct-18 12:30N 01°12' E 103°51'1 2.8
2017-Oct-18 11:59N 01°12' E 103°50'19 2.6
2017-Oct-18 04:41N 01°15' E 104°08'313.2
2017-Oct-18 04:26N 01°15' E 104°05'613.0
2017-Oct-18 03:58N 01°14' E 103°59'612.2
2017-Oct-18 03:30N 01°13' E 103°54'5 9.5
2017-Oct-18 03:00N 01°12' E 103°49'4 7.6
2017-Oct-18 02:30N 01°15' E 103°47'2 3.2
2017-Oct-18 01:57N 01°16' E 103°46'0 0.1
2017-Oct-18 01:30N 01°16' E 103°46'0 0.0
2017-Oct-18 01:00N 01°16' E 103°46'0 0.0
2017-Oct-18 00:27N 01°16' E 103°46'0 0.1
2017-Oct-17 23:39N 01°16' E 103°46'0 0.3
2017-Oct-17 23:27N 01°16' E 103°46'0 0.0
2017-Oct-17 22:54N 01°16' E 103°46'0 0.0
2017-Oct-17 22:27N 01°16' E 103°46'0 0.1
2017-Oct-17 21:51N 01°16' E 103°46'0 0.0
2017-Oct-17 21:27N 01°16' E 103°46'0 0.0
2017-Oct-17 20:57N 01°16' E 103°46'0 0.0
2017-Oct-17 19:45N 01°16' E 103°46'0 0.2
2017-Oct-17 19:27N 01°16' E 103°46'0 0.0
2017-Oct-17 18:57N 01°16' E 103°46'0 0.0
2017-Oct-17 18:24N 01°16' E 103°46'0 0.0
2017-Oct-17 18:00N 01°16' E 103°46'0 0.1
2017-Oct-17 17:27N 01°16' E 103°46'0 0.0
2017-Oct-17 16:54N 01°16' E 103°46'0 0.1
2017-Oct-17 16:06N 01°16' E 103°46'0 0.0
2017-Oct-17 15:45N 01°16' E 103°46'0 0.0
2017-Oct-17 14:54N 01°16' E 103°46'2 4.5
2017-Oct-17 14:27N 01°15' E 103°47'1 1.5
2017-Oct-17 13:53N 01°14' E 103°47'1 1.6
2017-Oct-17 13:27N 01°13' E 103°48'4 8.1
2017-Oct-17 13:00N 01°16' E 103°46'0 0.0
2017-Oct-17 12:27N 01°16' E 103°46'0 0.0
2017-Oct-17 11:57N 01°16' E 103°46'0 0.0
2017-Oct-17 11:30N 01°16' E 103°46'0 0.0
2017-Oct-17 10:57N 01°16' E 103°46'0 0.0
2017-Oct-17 10:30N 01°16' E 103°46'0 0.0
2017-Oct-17 10:01N 01°16' E 103°46'0 0.0
2017-Oct-17 09:30N 01°16' E 103°46'0 0.0
2017-Oct-17 08:54N 01°16' E 103°46'0 0.0
2017-Oct-17 08:28N 01°16' E 103°46'0 0.0
2017-Oct-17 07:58N 01°16' E 103°46'1 2.8
2017-Oct-17 07:26N 01°15' E 103°45'0 0.3
2017-Oct-17 07:00N 01°15' E 103°45'0 0.3
2017-Oct-17 06:30N 01°15' E 103°45'0 0.9
2017-Oct-17 05:58N 01°15' E 103°45'1 1.3
2017-Oct-17 05:30N 01°15' E 103°44'2 3.5
2017-Oct-17 04:49N 01°16' E 103°46'0 0.2
2017-Oct-17 04:30N 01°16' E 103°46'3 5.0
2017-Oct-17 04:00N 01°14' E 103°47'3 6.0
2017-Oct-17 03:30N 01°12' E 103°50'3 6.0
2017-Oct-17 03:00N 01°13' E 103°52'1 2.6
2017-Oct-17 02:30N 01°14' E 103°53'0 0.4
2017-Oct-17 01:59N 01°15' E 103°53'0 0.0
2017-Oct-17 01:26N 01°15' E 103°53'0 0.0
2017-Oct-17 00:56N 01°15' E 103°53'0 0.0
2017-Oct-17 00:29N 01°15' E 103°53'0 0.0
2017-Oct-16 23:59N 01°15' E 103°53'0 0.0
2017-Oct-16 23:29N 01°15' E 103°53'0 0.0
2017-Oct-16 22:59N 01°15' E 103°53'0 0.0
2017-Oct-16 22:29N 01°15' E 103°53'3 5.3
2017-Oct-16 22:00N 01°13' E 103°51'4 8.4
2017-Oct-16 21:30N 01°14' E 103°47'3 6.4
2017-Oct-16 21:00N 01°16' E 103°46'1 2.3
2017-Oct-16 20:31N 01°15' E 103°46'1 1.3
2017-Oct-16 20:00N 01°15' E 103°45'2 4.1
2017-Oct-16 19:30N 01°14' E 103°43'5 9.3
2017-Oct-16 19:00N 01°12' E 103°39'4 7.3
2017-Oct-16 18:30N 01°12' E 103°36'4 7.1
2017-Oct-16 18:00N 01°10' E 103°33'713.6
2017-Oct-16 17:30N 01°11' E 103°26'815.9
2017-Oct-16 16:58N 01°16' E 103°19'  

Dump ship's entire track history